Salem, Illinois
Current Conditions -  °F | °C
As of 9:15 AM on Thursday 30 Oct 2014 (Local Time) from KSLO Reporting Station
Clear Clear  
Wind Chill: 44°   Ceiling: Unl
Heat Index: 47°   Visibility: 10mi
Dew Point: 39°   Wind: 6mph
Humidity: 75%   Direction: 140°SE
Pressure: 30.17"   Gusts: NA
Location:  38.63°N, 88.94°W
Report Text: KSLO 301415Z AUTO 14005KT 10SM CLR 08/04 A3017 RMK AO2 T00810040
Loading
Personal Weather Stations






























Interactive Weather Map
Tropical Storm Tracking
New forecast layout! Learn more

10-Day Weather Forecast

Advertisements
Track Severe Weather on mobile